createdAt,value
2016-05-31T00:00:43.750Z,99.99
2016-05-31T00:01:43.892Z,99.99
2016-05-31T00:02:43.880Z,99.99
2016-05-31T00:03:43.852Z,99.99
2016-05-31T00:04:43.838Z,99.99
2016-05-31T00:05:43.810Z,99.99
2016-05-31T00:06:43.781Z,99.99
2016-05-31T00:07:44.080Z,99.99
2016-05-31T00:08:43.755Z,99.99
2016-05-31T00:09:43.727Z,99.99
2016-05-31T00:10:43.714Z,99.99
2016-05-31T00:11:43.529Z,99.99
2016-05-31T00:12:43.672Z,99.99
2016-05-31T00:13:43.643Z,99.99
2016-05-31T00:14:43.631Z,99.99
2016-05-31T00:15:43.602Z,99.99
2016-05-31T00:16:43.590Z,99.99
2016-05-31T00:17:43.576Z,99.99
2016-05-31T00:18:43.547Z,99.99
2016-05-31T00:19:43.520Z,99.99
2016-05-31T00:20:43.507Z,99.99
2016-05-31T00:21:43.321Z,99.99
2016-05-31T00:22:43.464Z,99.99
2016-05-31T00:23:43.436Z,99.99
2016-05-31T00:24:43.422Z,99.99
2016-05-31T00:25:43.395Z,99.99
2016-05-31T00:26:43.241Z,99.99
2016-05-31T00:27:43.212Z,99.99
2016-05-31T00:28:43.355Z,99.99
2016-05-31T00:29:43.328Z,99.99
2016-05-31T00:30:43.142Z,99.99
2016-05-31T00:31:43.270Z,99.99
2016-05-31T00:32:43.257Z,99.99
2016-05-31T00:33:43.244Z,99.99
2016-05-31T00:34:43.231Z,99.99
2016-05-31T00:35:43.203Z,99.99
2016-05-31T00:36:43.190Z,99.99
2016-05-31T00:37:43.177Z,99.99
2016-05-31T00:38:42.976Z,99.99
2016-05-31T00:39:43.120Z,99.99
2016-05-31T00:40:43.091Z,99.99
2016-05-31T00:41:42.921Z,99.99
2016-05-31T00:42:43.049Z,99.99
2016-05-31T00:43:43.037Z,99.99
2016-05-31T00:44:42.852Z,99.99
2016-05-31T00:45:43.010Z,99.99
2016-05-31T00:46:42.982Z,99.99
2016-05-31T00:47:42.798Z,99.99
2016-05-31T00:48:42.941Z,99.99
2016-05-31T00:49:42.913Z,99.99
2016-05-31T00:50:42.899Z,99.99
2016-05-31T00:51:42.714Z,99.99
2016-05-31T00:52:42.859Z,99.99
2016-05-31T00:53:42.829Z,99.99
2016-05-31T00:54:42.817Z,99.99
2016-05-31T00:55:42.631Z,99.99
2016-05-31T00:56:42.775Z,99.99
2016-05-31T00:57:42.606Z,99.99
2016-05-31T00:58:42.733Z,99.99
2016-05-31T00:59:42.705Z,99.99
2016-05-31T01:00:42.676Z,99.99
2016-05-31T01:01:42.663Z,99.99
2016-05-31T01:02:42.650Z,99.99
2016-05-31T01:03:42.622Z,99.99
2016-05-31T01:04:42.594Z,99.99
2016-05-31T01:05:42.580Z,99.99
2016-05-31T01:06:42.552Z,99.99
2016-05-31T01:07:43.180Z,99.99
2016-05-31T01:08:42.510Z,99.99
2016-05-31T01:09:42.497Z,99.99
2016-05-31T01:10:42.328Z,99.99
2016-05-31T01:11:42.455Z,99.99
2016-05-31T01:12:42.443Z,99.99
2016-05-31T01:13:42.415Z,99.99
2016-05-31T01:14:42.385Z,99.99
2016-05-31T01:15:42.388Z,99.99
2016-05-31T01:16:42.188Z,99.99
2016-05-31T01:17:42.331Z,99.99
2016-05-31T01:18:42.318Z,99.99
2016-05-31T01:19:42.290Z,99.99
2016-05-31T01:20:42.276Z,99.99
2016-05-31T01:21:42.248Z,99.99
2016-05-31T01:22:42.267Z,99.99
2016-05-31T01:23:42.222Z,99.99
2016-05-31T01:24:42.195Z,99.99
2016-05-31T01:25:42.400Z,99.99
2016-05-31T01:26:42.153Z,99.99
2016-05-31T01:27:42.123Z,99.99
2016-05-31T01:28:42.095Z,99.99
2016-05-31T01:29:42.067Z,99.99
2016-05-31T01:30:42.054Z,99.99
2016-05-31T01:31:41.884Z,99.99
2016-05-31T01:32:42.012Z,99.99
2016-05-31T01:33:41.999Z,99.99
2016-05-31T01:34:41.972Z,99.99
2016-05-31T01:35:41.942Z,99.99
2016-05-31T01:36:41.929Z,99.99
2016-05-31T01:37:41.933Z,99.99
2016-05-31T01:38:42.013Z,99.99
2016-05-31T01:39:41.860Z,99.99
2016-05-31T01:40:41.846Z,99.99
2016-05-31T01:41:41.833Z,99.99
2016-05-31T01:42:41.648Z,99.99
2016-05-31T01:43:41.776Z,99.99
2016-05-31T01:44:41.763Z,99.99
2016-05-31T01:45:41.751Z,99.99
2016-05-31T01:46:41.721Z,99.99
2016-05-31T01:47:41.552Z,99.99
2016-05-31T01:48:41.524Z,99.99
2016-05-31T01:49:41.652Z,99.99
2016-05-31T01:50:41.623Z,99.99
2016-05-31T01:51:41.610Z,99.99
2016-05-31T01:52:41.613Z,99.99
2016-05-31T01:53:41.568Z,99.99
2016-05-31T01:54:41.540Z,99.99
2016-05-31T01:55:41.528Z,99.99
2016-05-31T01:56:41.499Z,99.99
2016-05-31T01:57:41.486Z,99.99
2016-05-31T01:58:41.457Z,99.99
2016-05-31T01:59:41.444Z,99.99
2016-05-31T02:00:41.416Z,99.99
2016-05-31T02:01:41.403Z,99.99
2016-05-31T02:02:41.375Z,99.99
2016-05-31T02:03:41.345Z,99.99
2016-05-31T02:04:41.333Z,99.99
2016-05-31T02:05:41.319Z,99.99
2016-05-31T02:06:41.292Z,99.99
2016-05-31T02:07:42.372Z,99.99
2016-05-31T02:08:41.249Z,99.99
2016-05-31T02:09:41.221Z,99.99
2016-05-31T02:10:41.208Z,99.99
2016-05-31T02:11:41.024Z,99.99
2016-05-31T02:12:41.167Z,99.99
2016-05-31T02:13:41.138Z,99.99
2016-05-31T02:14:41.125Z,99.99
2016-05-31T02:15:41.113Z,99.99
2016-05-31T02:16:41.084Z,99.99
2016-05-31T02:17:41.055Z,99.99
2016-05-31T02:18:41.027Z,99.99
2016-05-31T02:19:41.014Z,99.99
2016-05-31T02:20:41.001Z,99.99
2016-05-31T02:21:40.973Z,99.99
2016-05-31T02:22:40.928Z,99.99
2016-05-31T02:23:40.931Z,99.99
2016-05-31T02:24:40.902Z,99.99
2016-05-31T02:25:40.890Z,99.99
2016-05-31T02:26:40.877Z,99.99
2016-05-31T02:27:40.864Z,99.99
2016-05-31T02:28:40.820Z,99.99
2016-05-31T02:29:40.651Z,99.99
2016-05-31T02:30:40.778Z,99.99
2016-05-31T02:31:40.609Z,99.99
2016-05-31T02:32:40.736Z,99.99
2016-05-31T02:33:40.723Z,99.99
2016-05-31T02:34:40.695Z,99.99
2016-05-31T02:35:40.667Z,99.99
2016-05-31T02:36:40.653Z,99.99
2016-05-31T02:37:40.484Z,99.99
2016-05-31T02:38:40.611Z,99.99
2016-05-31T02:39:40.583Z,99.99
2016-05-31T02:40:40.570Z,99.99
2016-05-31T02:41:40.541Z,99.99
2016-05-31T02:42:40.529Z,99.99
2016-05-31T02:43:40.500Z,99.99
2016-05-31T02:44:40.488Z,99.99
2016-05-31T02:45:40.458Z,99.99
2016-05-31T02:46:40.430Z,99.99
2016-05-31T02:47:40.432Z,99.99
2016-05-31T02:48:40.388Z,99.99
2016-05-31T02:49:40.376Z,99.99
2016-05-31T02:50:40.347Z,99.99
2016-05-31T02:51:40.335Z,99.99
2016-05-31T02:52:40.321Z,99.99
2016-05-31T02:53:40.387Z,99.99
2016-05-31T02:54:40.279Z,99.99
2016-05-31T02:55:40.251Z,99.99
2016-05-31T02:56:40.223Z,99.99
2016-05-31T02:57:40.210Z,99.99
2016-05-31T02:58:40.181Z,99.99
2016-05-31T02:59:40.168Z,99.99
2016-05-31T03:00:40.139Z,99.99
2016-05-31T03:01:40.143Z,99.99
2016-05-31T03:02:40.098Z,99.99
2016-05-31T03:03:40.070Z,99.99
2016-05-31T03:04:40.041Z,99.99
2016-05-31T03:05:40.028Z,99.99
2016-05-31T03:06:40.015Z,99.99
2016-05-31T03:07:40.471Z,99.99
2016-05-31T03:08:39.975Z,99.99
2016-05-31T03:09:39.945Z,99.99
2016-05-31T03:10:39.933Z,99.99
2016-05-31T03:11:39.903Z,99.99
2016-05-31T03:12:39.874Z,99.99
2016-05-31T03:13:39.878Z,99.99
2016-05-31T03:14:39.833Z,99.99
2016-05-31T03:15:39.821Z,99.99
2016-05-31T03:16:39.792Z,99.99
2016-05-31T03:17:39.763Z,99.99
2016-05-31T03:18:39.766Z,99.99
2016-05-31T03:19:39.738Z,99.99
2016-05-31T03:20:39.709Z,99.99
2016-05-31T03:21:39.680Z,99.99
2016-05-31T03:22:40.668Z,99.99
2016-05-31T03:23:39.655Z,99.99
2016-05-31T03:24:39.626Z,99.99
2016-05-31T03:25:39.598Z,99.99
2016-05-31T03:26:39.585Z,99.99
2016-05-31T03:27:39.556Z,99.99
2016-05-31T03:28:39.542Z,99.99
2016-05-31T03:29:39.515Z,99.99
2016-05-31T03:30:39.486Z,99.99
2016-05-31T03:31:39.473Z,99.99
2016-05-31T03:32:39.460Z,99.99
2016-05-31T03:33:39.431Z,99.99
2016-05-31T03:34:39.403Z,99.99
2016-05-31T03:35:39.375Z,99.99
2016-05-31T03:36:39.362Z,99.99
2016-05-31T03:37:39.880Z,99.99
2016-05-31T03:38:39.851Z,99.99
2016-05-31T03:39:39.308Z,99.99
2016-05-31T03:40:39.278Z,99.99
2016-05-31T03:41:39.266Z,99.99
2016-05-31T03:42:39.236Z,99.99
2016-05-31T03:43:39.208Z,99.99
2016-05-31T03:44:39.039Z,99.99
2016-05-31T03:45:39.166Z,99.99
2016-05-31T03:46:39.155Z,99.99
2016-05-31T03:47:39.141Z,99.99
2016-05-31T03:48:39.096Z,99.99
2016-05-31T03:49:39.085Z,99.99
2016-05-31T03:50:39.071Z,99.99
2016-05-31T03:51:39.042Z,99.99
2016-05-31T03:52:39.030Z,99.99
2016-05-31T03:53:38.891Z,99.99
2016-05-31T03:54:38.988Z,99.99
2016-05-31T03:55:38.944Z,99.99
2016-05-31T03:56:38.931Z,99.99
2016-05-31T03:57:38.934Z,99.99
2016-05-31T03:58:38.890Z,99.99
2016-05-31T03:59:38.861Z,99.99
2016-05-31T04:00:38.864Z,99.99
2016-05-31T04:01:38.662Z,99.99
2016-05-31T04:02:38.807Z,99.99
2016-05-31T04:03:38.793Z,99.99
2016-05-31T04:04:38.780Z,99.99
2016-05-31T04:05:38.737Z,99.99
2016-05-31T04:06:38.723Z,99.99
2016-05-31T04:07:39.413Z,99.99
2016-05-31T04:08:38.947Z,99.99
2016-05-31T04:09:38.654Z,99.99
2016-05-31T04:10:38.641Z,99.99
2016-05-31T04:11:38.611Z,99.99
2016-05-31T04:12:38.600Z,99.99
2016-05-31T04:13:38.414Z,99.99
2016-05-31T04:14:38.557Z,99.99
2016-05-31T04:15:38.529Z,99.99
2016-05-31T04:16:38.516Z,99.99
2016-05-31T04:17:38.488Z,99.99
2016-05-31T04:18:38.474Z,99.99
2016-05-31T04:19:38.446Z,99.99
2016-05-31T04:20:38.433Z,99.99
2016-05-31T04:21:38.404Z,99.99
2016-05-31T04:22:38.391Z,99.99
2016-05-31T04:23:38.363Z,99.99
2016-05-31T04:24:38.350Z,99.99
2016-05-31T04:25:38.321Z,99.99
2016-05-31T04:26:38.309Z,99.99
2016-05-31T04:27:38.280Z,99.99
2016-05-31T04:28:38.267Z,99.99
2016-05-31T04:29:38.253Z,99.99
2016-05-31T04:30:38.225Z,99.99
2016-05-31T04:31:38.057Z,99.99
2016-05-31T04:32:38.184Z,99.99
2016-05-31T04:33:38.155Z,99.99
2016-05-31T04:34:38.143Z,99.99
2016-05-31T04:35:38.129Z,99.99
2016-05-31T04:36:37.944Z,99.99
2016-05-31T04:37:38.401Z,99.99
2016-05-31T04:38:38.059Z,99.99
2016-05-31T04:39:38.031Z,99.99
2016-05-31T04:40:38.017Z,99.99
2016-05-31T04:41:37.990Z,99.99
2016-05-31T04:42:37.977Z,99.99
2016-05-31T04:43:37.947Z,99.99
2016-05-31T04:44:37.935Z,99.99
2016-05-31T04:45:37.906Z,99.99
2016-05-31T04:46:37.894Z,99.99
2016-05-31T04:47:37.880Z,99.99
2016-05-31T04:48:37.852Z,99.99
2016-05-31T04:49:37.839Z,99.99
2016-05-31T04:50:37.810Z,99.99
2016-05-31T04:51:37.626Z,99.99
2016-05-31T04:52:38.019Z,99.99
2016-05-31T04:53:38.382Z,99.99
2016-05-31T04:54:37.727Z,99.99
2016-05-31T04:55:37.715Z,99.99
2016-05-31T04:56:37.685Z,99.99
2016-05-31T04:57:37.657Z,99.99
2016-05-31T04:58:37.629Z,99.99
2016-05-31T04:59:37.615Z,99.99
2016-05-31T05:00:37.604Z,99.99
2016-05-31T05:01:37.590Z,99.99
2016-05-31T05:02:37.561Z,99.99
2016-05-31T05:03:37.549Z,99.99
2016-05-31T05:04:37.520Z,99.99
2016-05-31T05:05:37.492Z,99.99
2016-05-31T05:06:37.478Z,99.99
2016-05-31T05:07:37.466Z,99.99
2016-05-31T05:08:37.453Z,99.99
2016-05-31T05:09:37.408Z,99.99
2016-05-31T05:10:37.395Z,99.99
2016-05-31T05:11:37.397Z,99.99
2016-05-31T05:12:37.354Z,99.99
2016-05-31T05:13:37.341Z,99.99
2016-05-31T05:14:37.313Z,99.99
2016-05-31T05:15:37.316Z,99.99
2016-05-31T05:16:37.286Z,99.99
2016-05-31T05:17:37.258Z,99.99
2016-05-31T05:18:37.229Z,99.99
2016-05-31T05:19:37.233Z,99.99
2016-05-31T05:20:37.204Z,99.99
2016-05-31T05:21:37.175Z,99.99
2016-05-31T05:22:37.552Z,99.99
2016-05-31T05:23:37.258Z,99.99
2016-05-31T05:24:37.121Z,99.99
2016-05-31T05:25:37.107Z,99.99
2016-05-31T05:26:37.079Z,99.99
2016-05-31T05:27:36.910Z,99.99
2016-05-31T05:28:37.038Z,99.99
2016-05-31T05:29:37.024Z,99.99
2016-05-31T05:30:37.012Z,99.99
2016-05-31T05:31:36.984Z,99.99
2016-05-31T05:32:36.970Z,99.99
2016-05-31T05:33:36.942Z,99.99
2016-05-31T05:34:36.929Z,99.99
2016-05-31T05:35:36.901Z,99.99
2016-05-31T05:36:36.715Z,99.99
2016-05-31T05:37:36.875Z,99.99
2016-05-31T05:38:36.923Z,99.99
2016-05-31T05:39:36.833Z,99.99
2016-05-31T05:40:36.804Z,99.99
2016-05-31T05:41:36.791Z,99.99
2016-05-31T05:42:36.764Z,99.99
2016-05-31T05:43:36.750Z,99.99
2016-05-31T05:44:36.565Z,99.99
2016-05-31T05:45:36.708Z,99.99
2016-05-31T05:46:36.680Z,99.99
2016-05-31T05:47:36.667Z,99.99
2016-05-31T05:48:36.497Z,99.99
2016-05-31T05:49:36.625Z,99.99
2016-05-31T05:50:36.612Z,99.99
2016-05-31T05:51:36.584Z,99.99
2016-05-31T05:52:36.571Z,99.99
2016-05-31T05:53:36.651Z,99.99
2016-05-31T05:54:36.530Z,99.99
2016-05-31T05:55:36.516Z,99.99
2016-05-31T05:56:36.332Z,99.99
2016-05-31T05:57:36.483Z,99.99
2016-05-31T05:58:36.482Z,99.99
2016-05-31T05:59:36.496Z,99.99
2016-05-31T06:00:36.509Z,99.99
2016-05-31T06:01:36.507Z,99.99
2016-05-31T06:02:36.515Z,99.99
2016-05-31T06:03:36.496Z,99.99
2016-05-31T06:04:36.352Z,99.99
2016-05-31T06:05:36.333Z,99.78
2016-05-31T06:06:36.486Z,96.61
2016-05-31T06:07:36.980Z,93.48
2016-05-31T06:08:36.455Z,91.06
2016-05-31T06:09:36.446Z,86.08
2016-05-31T06:10:36.452Z,82.6
2016-05-31T06:11:36.412Z,82.54
2016-05-31T06:12:36.245Z,78.91
2016-05-31T06:13:36.248Z,79.72
2016-05-31T06:14:36.378Z,78.74
2016-05-31T06:15:36.366Z,75.63
2016-05-31T06:16:36.353Z,73.83
2016-05-31T06:17:36.342Z,73.28
2016-05-31T06:18:36.173Z,69.93
2016-05-31T06:19:36.160Z,70.83
2016-05-31T06:20:36.304Z,66.69
2016-05-31T06:21:36.291Z,67.6
2016-05-31T06:22:36.280Z,63.84
2016-05-31T06:23:36.500Z,62.23
2016-05-31T06:24:36.252Z,66.31
2016-05-31T06:25:36.241Z,58.1
2016-05-31T06:26:36.227Z,61.31
2016-05-31T06:27:36.230Z,57.06
2016-05-31T06:28:36.217Z,57.84
2016-05-31T06:29:36.204Z,55.82
2016-05-31T06:30:36.191Z,54.65
2016-05-31T06:31:36.178Z,52.83
2016-05-31T06:32:36.181Z,53.53
2016-05-31T06:33:36.167Z,51.41
2016-05-31T06:34:36.171Z,49.88
2016-05-31T06:35:36.142Z,49.1
2016-05-31T06:36:36.145Z,48.51
2016-05-31T06:37:36.178Z,48.63
2016-05-31T06:38:36.120Z,46.6
2016-05-31T06:39:36.122Z,44.35
2016-05-31T06:40:36.108Z,44.94
2016-05-31T06:41:36.095Z,44.49
2016-05-31T06:42:36.083Z,44.69
2016-05-31T06:43:35.929Z,42.85
2016-05-31T06:44:36.072Z,41.09
2016-05-31T06:45:36.075Z,41.58
2016-05-31T06:46:36.061Z,39.45
2016-05-31T06:47:36.050Z,37.69
2016-05-31T06:48:36.052Z,38.39
2016-05-31T06:49:36.039Z,38.1
2016-05-31T06:50:36.027Z,37.71
2016-05-31T06:51:36.029Z,38.49
2016-05-31T06:52:36.844Z,38.98
2016-05-31T06:53:35.877Z,36.25
2016-05-31T06:54:36.021Z,34.41
2016-05-31T06:55:36.008Z,35
2016-05-31T06:56:35.996Z,33.23
2016-05-31T06:57:35.998Z,33.23
2016-05-31T06:58:35.985Z,34.41
2016-05-31T06:59:36.004Z,34.78
2016-05-31T07:00:35.991Z,36.37
2016-05-31T07:01:35.977Z,34.9
2016-05-31T07:02:35.965Z,35.11
2016-05-31T07:03:35.811Z,33.85
2016-05-31T07:04:35.954Z,32.2
2016-05-31T07:05:35.957Z,32.1
2016-05-31T07:06:35.959Z,33.48
2016-05-31T07:07:35.884Z,32.04
2016-05-31T07:08:35.793Z,31.84
2016-05-31T07:09:35.937Z,31.05
2016-05-31T07:10:35.955Z,30.58
2016-05-31T07:11:35.942Z,31.54
2016-05-31T07:12:35.928Z,30.55
2016-05-31T07:13:35.917Z,30.17
2016-05-31T07:14:35.919Z,30.18
2016-05-31T07:15:35.922Z,32.05
2016-05-31T07:16:35.924Z,30.77
2016-05-31T07:17:35.911Z,29.61
2016-05-31T07:18:35.897Z,30
2016-05-31T07:19:35.901Z,31.18
2016-05-31T07:20:35.903Z,30.98
2016-05-31T07:21:35.891Z,31.46
2016-05-31T07:22:35.893Z,30.49
2016-05-31T07:23:35.725Z,30.02
2016-05-31T07:24:35.883Z,30.3
2016-05-31T07:25:35.885Z,30.11
2016-05-31T07:26:35.873Z,28.95
2016-05-31T07:27:35.876Z,29.05
2016-05-31T07:28:35.879Z,29.21
2016-05-31T07:29:35.865Z,30.28
2016-05-31T07:30:35.868Z,30.04
2016-05-31T07:31:35.855Z,32.14
2016-05-31T07:32:35.718Z,33.5
2016-05-31T07:33:35.860Z,35.22
2016-05-31T07:34:35.848Z,33.48
2016-05-31T07:35:35.850Z,33.72
2016-05-31T07:36:35.837Z,34.92
2016-05-31T07:37:36.090Z,36.16
2016-05-31T07:38:36.140Z,36.22
2016-05-31T07:39:35.829Z,36.02
2016-05-31T07:40:35.832Z,36.28
2016-05-31T07:41:35.648Z,37.81
2016-05-31T07:42:35.822Z,39.82
2016-05-31T07:43:35.809Z,38.34
2016-05-31T07:44:35.639Z,36.34
2016-05-31T07:45:35.800Z,36.96
2016-05-31T07:46:35.787Z,36.12
2016-05-31T07:47:35.789Z,33.7
2016-05-31T07:48:35.619Z,35.06
2016-05-31T07:49:35.763Z,35.03
2016-05-31T07:50:35.609Z,34.7
2016-05-31T07:51:35.753Z,33.74
2016-05-31T07:52:36.302Z,31.99
2016-05-31T07:53:36.211Z,32.9
2016-05-31T07:54:35.744Z,33.87
2016-05-31T07:55:35.748Z,35.97
2016-05-31T07:56:35.579Z,36.73
2016-05-31T07:57:35.722Z,38.43
2016-05-31T07:58:35.552Z,41.05
2016-05-31T07:59:35.727Z,43.27
2016-05-31T08:00:35.699Z,43.54
2016-05-31T08:01:35.702Z,44.69
2016-05-31T08:02:35.688Z,43.62
2016-05-31T08:03:35.675Z,43.52
2016-05-31T08:04:35.679Z,42.94
2016-05-31T08:05:35.666Z,42.63
2016-05-31T08:06:35.652Z,42.35
2016-05-31T08:07:35.639Z,42.08
2016-05-31T08:08:35.486Z,42.91
2016-05-31T08:09:35.644Z,42.43
2016-05-31T08:10:35.617Z,40.6
2016-05-31T08:11:35.604Z,40.86
2016-05-31T08:12:35.606Z,43.18
2016-05-31T08:13:35.592Z,43.05
2016-05-31T08:14:35.581Z,43.62
2016-05-31T08:15:35.583Z,44.26
2016-05-31T08:16:35.570Z,44.65
2016-05-31T08:17:35.572Z,43.85
2016-05-31T08:18:35.559Z,44.99
2016-05-31T08:19:35.546Z,44.79
2016-05-31T08:20:35.533Z,45.84
2016-05-31T08:21:35.536Z,45.94
2016-05-31T08:22:35.508Z,46.11
2016-05-31T08:23:35.651Z,45.94
2016-05-31T08:24:35.325Z,47.28
2016-05-31T08:25:35.485Z,46.21
2016-05-31T08:26:35.472Z,45.62
2016-05-31T08:27:35.458Z,45.62
2016-05-31T08:28:35.446Z,46.86
2016-05-31T08:29:35.448Z,46.48
2016-05-31T08:30:35.436Z,46.11
2016-05-31T08:31:35.423Z,43.82
2016-05-31T08:32:35.410Z,41.83
2016-05-31T08:33:35.396Z,41.2
2016-05-31T08:34:35.243Z,40.64
2016-05-31T08:35:35.387Z,39.59
2016-05-31T08:36:35.373Z,39.59
2016-05-31T08:37:35.361Z,41.13
2016-05-31T08:38:35.348Z,41.11
2016-05-31T08:39:35.351Z,40.86
2016-05-31T08:40:37.790Z,41.44
2016-05-31T08:41:37.871Z,38.98
2016-05-31T08:42:37.859Z,39
2016-05-31T08:43:37.845Z,38.24
2016-05-31T08:44:36.536Z,38.18
2016-05-31T08:45:37.726Z,36.73
2016-05-31T08:46:37.791Z,37.6
2016-05-31T08:47:37.856Z,38.26
2016-05-31T08:48:38.015Z,39.61
2016-05-31T08:49:37.987Z,39.02
2016-05-31T08:50:37.942Z,39.29
2016-05-31T08:51:37.711Z,40.16
2016-05-31T08:52:37.635Z,39.55
2016-05-31T08:53:37.810Z,42.06
2016-05-31T08:54:38.000Z,42.53
2016-05-31T08:55:37.941Z,43.96
2016-05-31T08:56:38.052Z,43.58
2016-05-31T08:57:36.883Z,43.75
2016-05-31T08:58:35.199Z,42.85
2016-05-31T08:59:35.201Z,43.63
2016-05-31T09:00:35.172Z,44.19
2016-05-31T09:01:35.175Z,44.68
2016-05-31T09:02:35.146Z,45.82
2016-05-31T09:03:35.149Z,47.45
2016-05-31T09:04:37.574Z,47.42
2016-05-31T09:05:36.889Z,49.46
2016-05-31T09:06:37.813Z,49.73
2016-05-31T09:07:35.129Z,49.82
2016-05-31T09:08:35.835Z,50.89
2016-05-31T09:09:35.087Z,50.77
2016-05-31T09:10:35.074Z,51.16
2016-05-31T09:11:35.061Z,51.54
2016-05-31T09:12:38.126Z,52.1
2016-05-31T09:13:37.317Z,52.39
2016-05-31T09:14:37.554Z,52.58
2016-05-31T09:15:37.525Z,52.46
2016-05-31T09:16:37.669Z,52.17
2016-05-31T09:17:37.764Z,53.02
2016-05-31T09:18:34.971Z,53.89
2016-05-31T09:19:34.958Z,54.66
2016-05-31T09:20:34.945Z,55.43
2016-05-31T09:21:34.932Z,55.51
2016-05-31T09:22:35.748Z,54.93
2016-05-31T09:23:34.921Z,54.05
2016-05-31T09:24:34.894Z,54.51
2016-05-31T09:25:34.880Z,54.9
2016-05-31T09:26:34.867Z,55.57
2016-05-31T09:27:34.854Z,54.9
2016-05-31T09:28:34.842Z,54.61
2016-05-31T09:29:34.829Z,54.41
2016-05-31T09:30:34.816Z,54.9
2016-05-31T09:31:34.802Z,54.8
2016-05-31T09:32:34.791Z,55.41
2016-05-31T09:33:34.776Z,53.47
2016-05-31T09:34:34.749Z,53.59
2016-05-31T09:35:34.751Z,53.81
2016-05-31T09:36:34.722Z,52.95
2016-05-31T09:37:34.757Z,53.04
2016-05-31T09:38:35.010Z,52.49
2016-05-31T09:39:34.699Z,51.42
2016-05-31T09:40:34.671Z,51.52
2016-05-31T09:41:34.673Z,50.94
2016-05-31T09:42:34.645Z,50.07
2016-05-31T09:43:34.631Z,51.54
2016-05-31T09:44:34.634Z,50.65
2016-05-31T09:45:34.606Z,51.54
2016-05-31T09:46:34.609Z,50.67
2016-05-31T09:47:34.611Z,50.48
2016-05-31T09:48:34.567Z,49.02
2016-05-31T09:49:34.570Z,47.96
2016-05-31T09:50:34.542Z,48.74
2016-05-31T09:51:34.544Z,48.95
2016-05-31T09:52:34.844Z,48.66
2016-05-31T09:53:34.518Z,49.34
2016-05-31T09:54:34.505Z,49.17
2016-05-31T09:55:34.492Z,49.85
2016-05-31T09:56:34.480Z,47.42
2016-05-31T09:57:34.466Z,46.67
2016-05-31T09:58:34.453Z,46.96
2016-05-31T09:59:34.440Z,46.98
2016-05-31T10:00:34.428Z,45.92
2016-05-31T10:01:34.415Z,45.53
2016-05-31T10:02:34.261Z,46.42
2016-05-31T10:03:34.232Z,47.01
2016-05-31T10:04:34.219Z,45.75
2016-05-31T10:05:34.362Z,45.43
2016-05-31T10:06:34.366Z,46.19
2016-05-31T10:07:34.352Z,46.21
2016-05-31T10:08:34.355Z,44.92
2016-05-31T10:09:34.326Z,46.67
2016-05-31T10:10:34.315Z,46.86
2016-05-31T10:11:34.317Z,45.89
2016-05-31T10:12:34.288Z,46.28
2016-05-31T10:13:34.290Z,45.62
2016-05-31T10:14:34.262Z,44.92
2016-05-31T10:15:34.264Z,45.24
2016-05-31T10:16:34.252Z,45.21
2016-05-31T10:17:34.239Z,45.14
2016-05-31T10:18:34.226Z,45.8
2016-05-31T10:19:34.213Z,45.89
2016-05-31T10:20:34.201Z,45.89
2016-05-31T10:21:34.203Z,46.26
2016-05-31T10:22:34.830Z,46.58
2016-05-31T10:23:34.553Z,46.75
2016-05-31T10:24:33.992Z,46.58
2016-05-31T10:25:34.150Z,46.94
2016-05-31T10:26:34.122Z,47.62
2016-05-31T10:27:34.110Z,45.58
2016-05-31T10:28:34.097Z,45.87
2016-05-31T10:29:34.083Z,44.71
2016-05-31T10:30:34.086Z,45.58
2016-05-31T10:31:34.074Z,46.65
2016-05-31T10:32:34.060Z,46.07
2016-05-31T10:33:34.032Z,46.55
2016-05-31T10:34:34.035Z,44.51
2016-05-31T10:35:34.021Z,45.68
2016-05-31T10:36:34.009Z,45.2
2016-05-31T10:37:34.590Z,44.23
2016-05-31T10:38:33.983Z,44.81
2016-05-31T10:39:33.970Z,45.87
2016-05-31T10:40:33.957Z,46.45
2016-05-31T10:41:33.960Z,45.87
2016-05-31T10:42:33.931Z,44.73
2016-05-31T10:43:33.918Z,44.54
2016-05-31T10:44:33.906Z,44.73
2016-05-31T10:45:33.751Z,44.73
2016-05-31T10:46:33.895Z,44.65
2016-05-31T10:47:33.867Z,44.75
2016-05-31T10:48:33.869Z,44.85
2016-05-31T10:49:33.857Z,43.49
2016-05-31T10:50:33.843Z,43.59
2016-05-31T10:51:33.831Z,43.22
2016-05-31T10:52:34.130Z,42.35
2016-05-31T10:53:33.804Z,42.93
2016-05-31T10:54:33.636Z,44.38
2016-05-31T10:55:33.794Z,43.12
2016-05-31T10:56:33.766Z,43.51
2016-05-31T10:57:33.753Z,43.61
2016-05-31T10:58:33.739Z,44.38
2016-05-31T10:59:33.727Z,43.8
2016-05-31T11:00:33.730Z,42.83
2016-05-31T11:01:33.716Z,42.35
2016-05-31T11:02:33.704Z,44.41
2016-05-31T11:03:33.691Z,44.79
2016-05-31T11:04:33.677Z,41.3
2016-05-31T11:05:33.665Z,40.81
2016-05-31T11:06:33.668Z,42.95
2016-05-31T11:07:34.779Z,43.9
2016-05-31T11:08:33.892Z,41.77
2016-05-31T11:09:33.613Z,42.35
2016-05-31T11:10:33.615Z,40.99
2016-05-31T11:11:33.446Z,42.13
2016-05-31T11:12:33.590Z,41.84
2016-05-31T11:13:33.576Z,42.52
2016-05-31T11:14:33.565Z,42.3
2016-05-31T11:15:33.551Z,41.72
2016-05-31T11:16:33.382Z,42.79
2016-05-31T11:17:33.526Z,44.54
2016-05-31T11:18:33.512Z,42.5
2016-05-31T11:19:33.500Z,42.99
2016-05-31T11:20:33.502Z,42.99
2016-05-31T11:21:33.473Z,43.57
2016-05-31T11:22:33.476Z,44.15
2016-05-31T11:23:33.589Z,41.24
2016-05-31T11:24:33.450Z,40.29
2016-05-31T11:25:33.437Z,41.36
2016-05-31T11:26:33.425Z,43.59
2016-05-31T11:27:33.411Z,43.78
2016-05-31T11:28:33.399Z,43.01
2016-05-31T11:29:33.386Z,42.91
2016-05-31T11:30:33.372Z,40.19
2016-05-31T11:31:33.360Z,42.05
2016-05-31T11:32:33.346Z,40.6
2016-05-31T11:33:33.350Z,40.6
2016-05-31T11:34:33.165Z,40.89
2016-05-31T11:35:33.324Z,39.82
2016-05-31T11:36:33.295Z,41.3
2016-05-31T11:37:33.141Z,41.01
2016-05-31T11:38:33.284Z,39.06
2016-05-31T11:39:33.271Z,38.67
2016-05-31T11:40:33.260Z,38.87
2016-05-31T11:41:33.262Z,38.85
2016-05-31T11:42:33.232Z,40.6
2016-05-31T11:43:33.221Z,40.99
2016-05-31T11:44:33.223Z,40.6
2016-05-31T11:45:33.195Z,40.89
2016-05-31T11:46:33.198Z,40.6
2016-05-31T11:47:33.168Z,40.79
2016-05-31T11:48:33.170Z,41.94
2016-05-31T11:49:33.158Z,41.94
2016-05-31T11:50:33.145Z,42.52
2016-05-31T11:51:33.132Z,42.02
2016-05-31T11:52:33.682Z,41.14
2016-05-31T11:53:33.122Z,39.98
2016-05-31T11:54:33.094Z,40.73
2016-05-31T11:55:32.924Z,41.02
2016-05-31T11:56:33.067Z,42.55
2016-05-31T11:57:33.055Z,43.82
2016-05-31T11:58:33.042Z,44.59
2016-05-31T11:59:33.028Z,44.2
2016-05-31T12:00:33.016Z,44.78
2016-05-31T12:01:33.018Z,44.3
2016-05-31T12:02:32.990Z,42.55
2016-05-31T12:03:32.994Z,43.43
2016-05-31T12:04:32.964Z,44.13
2016-05-31T12:05:32.967Z,42.94
2016-05-31T12:06:32.969Z,43.35
2016-05-31T12:07:32.956Z,43.84
2016-05-31T12:08:32.928Z,44.03
2016-05-31T12:09:32.916Z,42.4
2016-05-31T12:10:32.902Z,42.21
2016-05-31T12:11:32.890Z,43.08
2016-05-31T12:12:32.892Z,42.3
2016-05-31T12:13:32.863Z,42.21
2016-05-31T12:14:32.851Z,43.18
2016-05-31T12:15:32.853Z,42.79
2016-05-31T12:16:32.824Z,43.57
2016-05-31T12:17:32.812Z,42.99
2016-05-31T12:18:32.798Z,43.47
2016-05-31T12:19:32.786Z,42.5
2016-05-31T12:20:32.773Z,42.99
2016-05-31T12:21:32.760Z,42.4
2016-05-31T12:22:32.607Z,42.79
2016-05-31T12:23:33.531Z,42.81
2016-05-31T12:24:32.720Z,44.15
2016-05-31T12:25:32.708Z,42.5
2016-05-31T12:26:32.711Z,42.89
2016-05-31T12:27:32.698Z,42.91
2016-05-31T12:28:32.513Z,42.61
2016-05-31T12:29:32.672Z,42.03
2016-05-31T12:30:32.675Z,42.71
2016-05-31T12:31:32.646Z,40.5
2016-05-31T12:32:32.633Z,41.47
2016-05-31T12:33:32.619Z,42.54
2016-05-31T12:34:32.451Z,40.69
2016-05-31T12:35:32.594Z,40.5
2016-05-31T12:36:32.582Z,39.82
2016-05-31T12:37:32.428Z,41.06
2016-05-31T12:38:32.883Z,42.35
2016-05-31T12:39:32.543Z,40.97
2016-05-31T12:40:32.529Z,40.77
2016-05-31T12:41:32.532Z,42.13
2016-05-31T12:42:32.504Z,40.99
2016-05-31T12:43:32.491Z,41.96
2016-05-31T12:44:32.478Z,43.8
2016-05-31T12:45:32.481Z,41.86
2016-05-31T12:46:32.467Z,39.53
2016-05-31T12:47:32.439Z,38.65
2016-05-31T12:48:32.286Z,40.11
2016-05-31T12:49:32.445Z,41.08
2016-05-31T12:50:32.416Z,40.99
2016-05-31T12:51:32.403Z,40.5
2016-05-31T12:52:32.390Z,40.89
2016-05-31T12:53:32.517Z,39.34
2016-05-31T12:54:32.364Z,39.14